ADDS METAR Data INFO
IDs: Format: Raw Decoded Include TAF

Data at: 1042 UTC 19 Oct 2017

KI35 191035Z AUTO 00000KT 3/4SM OVC001 06/05 A3031 RMK AO1
KI35 191015Z AUTO 00000KT 1SM OVC001 06/05 A3030 RMK AO1
KI35 190955Z AUTO 00000KT 5SM BKN001 05/05 A3030 RMK AO1
KI35 190935Z AUTO 00000KT 5SM SCT001 05/05 A3029 RMK AO1
KI35 190915Z AUTO 00000KT 7SM SCT002 06/05 A3028 RMK AO1
KI35 190855Z AUTO 00000KT 7SM SCT002 06/05 A3028 RMK AO1
KI35 190835Z AUTO 00000KT 10SM CLR 06/05 A3028 RMK AO1
KI35 190815Z AUTO 00000KT 7SM CLR 06/05 A3028 RMK AO1
KI35 190755Z AUTO 00000KT 7SM CLR 06/05 A3028 RMK AO1
KI35 190735Z AUTO 00000KT 10SM CLR 06/05 A3028 RMK AO1
KI35 190715Z AUTO 00000KT 10SM CLR 06/06 A3028 RMK AO1
KI35 190655Z AUTO 00000KT 10SM CLR 06/05 A3028 RMK AO1
KI35 190635Z AUTO 00000KT 10SM CLR 06/05 A3028 RMK AO1
KI35 190615Z AUTO 00000KT 10SM CLR 06/06 A3028 RMK AO1
KI35 190555Z AUTO 00000KT 10SM CLR 07/06 A3028 RMK AO1
KI35 190535Z AUTO 00000KT 10SM CLR 07/06 A3028 RMK AO1
KI35 190515Z AUTO 00000KT 10SM CLR 07/06 A3028 RMK AO1
KI35 190455Z AUTO 00000KT 10SM CLR 07/06 A3029 RMK AO1
KI35 190435Z AUTO 00000KT 10SM CLR 07/06 A3029 RMK AO1
KI35 190415Z AUTO 00000KT 10SM CLR 08/07 A3029 RMK AO1
KI35 190355Z AUTO 00000KT 10SM CLR 08/07 A3029 RMK AO1
KI35 190335Z AUTO 00000KT 10SM CLR 08/07 A3029 RMK AO1
KI35 190315Z AUTO 00000KT 10SM CLR 08/07 A3029 RMK AO1
KI35 190255Z AUTO 00000KT 10SM CLR 08/07 A3029 RMK AO1
KI35 190235Z AUTO 00000KT 10SM CLR 09/07 A3029 RMK AO1
KI35 190215Z AUTO 00000KT 10SM CLR 10/08 A3029 RMK AO1
KI35 190155Z AUTO 00000KT 10SM CLR 10/08 A3029 RMK AO1
KI35 190135Z AUTO 00000KT 10SM CLR 10/08 A3029 RMK AO1
KI35 190115Z AUTO 00000KT 10SM CLR 11/08 A3029 RMK AO1
KI35 190055Z AUTO 00000KT 10SM CLR 11/08 A3029 RMK AO1
KI35 190035Z AUTO 00000KT 10SM CLR 12/08 A3028 RMK AO1
KI35 190015Z AUTO 00000KT 10SM CLR 12/08 A3029 RMK AO1
KI35 182355Z AUTO 00000KT 10SM CLR 13/08 A3028 RMK AO1
KI35 182335Z AUTO 00000KT 10SM CLR 15/07 A3028 RMK AO1
KI35 182315Z AUTO 00000KT 10SM CLR 15/07 A3027 RMK AO1
KI35 182255Z AUTO 00000KT 10SM CLR 17/07 A3027 RMK AO1
KI35 182235Z AUTO 00000KT 10SM CLR 18/06 A3027 RMK AO1
KI35 182215Z AUTO 00000KT 10SM CLR 19/05 A3027 RMK AO1
KI35 182155Z AUTO 00000KT 10SM CLR 19/05 A3027 RMK AO1
KI35 182135Z AUTO 00000KT 10SM CLR 20/04 A3027 RMK AO1
KI35 182115Z AUTO 00000KT 10SM CLR 20/03 A3027 RMK AO1
KI35 182055Z AUTO 00000KT 10SM CLR 21/03 A3027 RMK AO1
KI35 182035Z AUTO 00000KT 10SM CLR 20/05 A3027 RMK AO1
KI35 182015Z AUTO 00000KT 10SM CLR 21/04 A3027 RMK AO1
KI35 181955Z AUTO 00000KT 10SM CLR 21/05 A3028 RMK AO1
KI35 181935Z AUTO 00000KT 10SM CLR 20/05 A3028 RMK AO1
KI35 181915Z AUTO 26003KT 10SM CLR 21/05 A3028 RMK AO1
KI35 181855Z AUTO 24003KT 10SM CLR 20/05 A3030 RMK AO1
KI35 181835Z AUTO 23003KT 10SM CLR 20/05 A3030 RMK AO1
KI35 181815Z AUTO 00000KT 10SM CLR 20/05 A3031 RMK AO1
KI35 181755Z AUTO 00000KT 10SM CLR 18/05 A3032 RMK AO1
KI35 181735Z AUTO 00000KT 10SM CLR 18/04 A3033 RMK AO1
KI35 181715Z AUTO 00000KT 10SM CLR 18/03 A3034 RMK AO1
KI35 181655Z AUTO 00000KT 10SM CLR 18/05 A3035 RMK AO1
KI35 181635Z AUTO 00000KT 10SM CLR 17/05 A3037 RMK AO1
KI35 181615Z AUTO 00000KT 10SM CLR 16/06 A3037 RMK AO1
KI35 181555Z AUTO 00000KT 10SM CLR 14/06 A3038 RMK AO1
KI35 181535Z AUTO 00000KT 10SM CLR 12/06 A3038 RMK AO1
KI35 181515Z AUTO 00000KT 10SM CLR 10/06 A3038 RMK AO1
KI35 181455Z AUTO 00000KT 10SM CLR 08/07 A3038 RMK AO1
KI35 181435Z AUTO 00000KT 10SM BKN003 07/06 A3039 RMK AO1
KI35 181415Z AUTO 00000KT 10SM OVC003 07/06 A3039 RMK AO1
KI35 181355Z AUTO 00000KT 3/4SM OVC001 05/05 A3039 RMK AO1
KI35 181335Z AUTO 00000KT 1/4SM OVC001 05/05 A3038 RMK AO1
KI35 181315Z AUTO 00000KT M1/4SM OVC001 05/04 A3038 RMK AO1
KI35 181255Z AUTO 00000KT M1/4SM OVC001 05/04 A3037 RMK AO1
KI35 181235Z AUTO 00000KT M1/4SM OVC001 04/03 A3037 RMK AO1
KI35 181215Z AUTO 00000KT M1/4SM OVC001 04/03 A3036 RMK AO1
KI35 181155Z AUTO 00000KT M1/4SM OVC001 05/03 A3036 RMK AO1
KI35 181135Z AUTO 00000KT 1/4SM OVC001 04/03 A3036 RMK AO1
KI35 181115Z AUTO 00000KT 1/4SM OVC001 05/04 A3035 RMK AO1
KI35 181055Z AUTO 00000KT 1/4SM OVC001 05/04 A3035 RMK AO1
KI35 181035Z AUTO 00000KT 1/4SM OVC001 05/04 A3035 RMK AO1
KI35 181015Z AUTO 00000KT 1/4SM OVC001 05/04 A3033 RMK AO1
KI35 180955Z AUTO 00000KT 1/2SM OVC001 05/05 A3033 RMK AO1
KI35 180935Z AUTO 00000KT 1/4SM OVC001 05/05 A3032 RMK AO1
KI35 180915Z AUTO 00000KT 1/4SM OVC001 05/05 A3031 RMK AO1
KI35 180855Z AUTO 00000KT 1/4SM OVC001 05/05 A3031 RMK AO1
KI35 180835Z AUTO 00000KT 1/2SM OVC001 05/05 A3031 RMK AO1
KI35 180815Z AUTO 00000KT 1SM OVC001 05/05 A3031 RMK AO1
KI35 180755Z AUTO 00000KT 1SM OVC001 05/04 A3030 RMK AO1
KI35 180735Z AUTO 00000KT 2SM OVC001 05/04 A3031 RMK AO1
KI35 180715Z AUTO 00000KT 1 1/4SM OVC001 05/05 A3031 RMK AO1 VIS 3/4V5
KI35 180655Z AUTO 00000KT 4SM OVC001 05/04 A3031 RMK AO1
KI35 180635Z AUTO 00000KT 1 3/4SM OVC001 05/05 A3031 RMK AO1 VIS 3/4V5
KI35 180615Z AUTO 00000KT 7SM SCT001 05/05 A3032 RMK AO1
KI35 180555Z AUTO 00000KT 1SM OVC001 05/05 A3032 RMK AO1
KI35 180535Z AUTO 00000KT 7SM BKN001 05/05 A3032 RMK AO1
KI35 180515Z AUTO 00000KT 10SM CLR 06/05 A3032 RMK AO1
KI35 180455Z AUTO 00000KT 10SM CLR 06/05 A3032 RMK AO1
KI35 180435Z AUTO 00000KT 10SM SCT001 06/05 A3032 RMK AO1
KI35 180415Z AUTO 00000KT 10SM SCT001 06/05 A3032 RMK AO1
KI35 180355Z AUTO 00000KT 10SM CLR 06/05 A3032 RMK AO1
KI35 180335Z AUTO 00000KT 10SM CLR 06/05 A3032 RMK AO1
KI35 180315Z AUTO 00000KT 10SM CLR 07/06 A3032 RMK AO1
KI35 180255Z AUTO 00000KT 10SM CLR 07/06 A3032 RMK AO1
KI35 180235Z AUTO 00000KT 10SM CLR 07/06 A3033 RMK AO1
KI35 180215Z AUTO 00000KT 10SM CLR 07/06 A3033 RMK AO1
KI35 180155Z AUTO 00000KT 10SM CLR 08/06 A3032 RMK AO1
KI35 180135Z AUTO 00000KT 10SM CLR 08/06 A3031 RMK AO1
KI35 180115Z AUTO 00000KT 10SM CLR 08/06 A3031 RMK AO1
KI35 180055Z AUTO 00000KT 10SM CLR 09/06 A3031 RMK AO1
KI35 180035Z AUTO 00000KT 10SM CLR 10/06 A3030 RMK AO1
KI35 180015Z AUTO 00000KT 10SM CLR 10/06 A3030 RMK AO1
KI35 172355Z AUTO 00000KT 10SM CLR 11/06 A3029 RMK AO1
KI35 172335Z AUTO 00000KT 10SM CLR 12/05 A3029 RMK AO1
KI35 172315Z AUTO 00000KT 10SM CLR 13/05 A3028 RMK AO1
KI35 172255Z AUTO 00000KT 10SM CLR 13/05 A3028 RMK AO1